sensor_id;sensor_type;location;lat;lon;timestamp;P1;durP1;ratioP1;P2;durP2;ratioP2
71298;SDS011;59083;47.974;21.722;2022-08-19T00:01:46;13.00;;;7.70;;
71298;SDS011;59083;47.974;21.722;2022-08-19T00:04:48;13.20;;;7.50;;
71298;SDS011;59083;47.974;21.722;2022-08-19T00:07:53;14.23;;;7.57;;
71298;SDS011;59083;47.974;21.722;2022-08-19T00:10:54;15.52;;;8.38;;
71298;SDS011;59083;47.974;21.722;2022-08-19T00:13:55;12.13;;;7.43;;
71298;SDS011;59083;47.974;21.722;2022-08-19T00:16:57;14.05;;;8.60;;
71298;SDS011;59083;47.974;21.722;2022-08-19T00:19:58;15.13;;;8.23;;
71298;SDS011;59083;47.974;21.722;2022-08-19T00:23:00;15.35;;;8.80;;
71298;SDS011;59083;47.974;21.722;2022-08-19T00:26:02;13.62;;;7.80;;
71298;SDS011;59083;47.974;21.722;2022-08-19T00:29:05;16.12;;;7.78;;
71298;SDS011;59083;47.974;21.722;2022-08-19T00:32:08;13.70;;;8.15;;
71298;SDS011;59083;47.974;21.722;2022-08-19T00:35:09;13.23;;;8.17;;
71298;SDS011;59083;47.974;21.722;2022-08-19T00:38:11;15.35;;;8.40;;
71298;SDS011;59083;47.974;21.722;2022-08-19T00:41:13;14.87;;;8.68;;
71298;SDS011;59083;47.974;21.722;2022-08-19T00:44:19;12.37;;;8.10;;
71298;SDS011;59083;47.974;21.722;2022-08-19T00:47:23;13.70;;;8.45;;
71298;SDS011;59083;47.974;21.722;2022-08-19T00:50:24;15.17;;;8.67;;
71298;SDS011;59083;47.974;21.722;2022-08-19T00:53:27;14.68;;;8.90;;
71298;SDS011;59083;47.974;21.722;2022-08-19T00:56:30;15.25;;;9.52;;
71298;SDS011;59083;47.974;21.722;2022-08-19T00:59:34;15.20;;;8.88;;
71298;SDS011;59083;47.974;21.722;2022-08-19T01:02:39;15.63;;;8.80;;
71298;SDS011;59083;47.974;21.722;2022-08-19T01:05:42;13.47;;;8.70;;
71298;SDS011;59083;47.974;21.722;2022-08-19T01:08:45;13.98;;;8.68;;
71298;SDS011;59083;47.974;21.722;2022-08-19T01:11:46;14.18;;;9.10;;
71298;SDS011;59083;47.974;21.722;2022-08-19T01:14:48;16.35;;;9.10;;
71298;SDS011;59083;47.974;21.722;2022-08-19T01:17:50;13.55;;;8.90;;
71298;SDS011;59083;47.974;21.722;2022-08-19T01:20:58;14.90;;;8.93;;
71298;SDS011;59083;47.974;21.722;2022-08-19T01:24:04;16.27;;;8.50;;
71298;SDS011;59083;47.974;21.722;2022-08-19T01:27:05;17.52;;;9.57;;
71298;SDS011;59083;47.974;21.722;2022-08-19T01:30:08;14.65;;;8.73;;
71298;SDS011;59083;47.974;21.722;2022-08-19T01:33:11;15.20;;;9.13;;
71298;SDS011;59083;47.974;21.722;2022-08-19T01:36:16;13.87;;;9.07;;
71298;SDS011;59083;47.974;21.722;2022-08-19T01:39:38;14.30;;;8.75;;
71298;SDS011;59083;47.974;21.722;2022-08-19T01:42:41;15.18;;;9.57;;
71298;SDS011;59083;47.974;21.722;2022-08-19T01:45:42;14.20;;;9.10;;
71298;SDS011;59083;47.974;21.722;2022-08-19T01:48:44;15.40;;;9.55;;
71298;SDS011;59083;47.974;21.722;2022-08-19T01:51:46;14.33;;;9.60;;
71298;SDS011;59083;47.974;21.722;2022-08-19T01:54:48;19.77;;;10.20;;
71298;SDS011;59083;47.974;21.722;2022-08-19T01:57:52;15.63;;;9.90;;
71298;SDS011;59083;47.974;21.722;2022-08-19T02:00:58;15.60;;;9.35;;
71298;SDS011;59083;47.974;21.722;2022-08-19T02:03:59;16.83;;;10.05;;
71298;SDS011;59083;47.974;21.722;2022-08-19T02:07:04;17.63;;;10.30;;
71298;SDS011;59083;47.974;21.722;2022-08-19T02:10:07;16.12;;;10.18;;
71298;SDS011;59083;47.974;21.722;2022-08-19T02:13:11;17.35;;;10.85;;
71298;SDS011;59083;47.974;21.722;2022-08-19T02:16:14;17.75;;;10.60;;
71298;SDS011;59083;47.974;21.722;2022-08-19T02:19:17;17.12;;;10.93;;
71298;SDS011;59083;47.974;21.722;2022-08-19T02:22:18;17.03;;;10.50;;
71298;SDS011;59083;47.974;21.722;2022-08-19T02:25:19;18.45;;;10.98;;
71298;SDS011;59083;47.974;21.722;2022-08-19T02:28:21;17.58;;;11.27;;
71298;SDS011;59083;47.974;21.722;2022-08-19T02:31:24;15.98;;;10.80;;
71298;SDS011;59083;47.974;21.722;2022-08-19T02:34:26;16.33;;;11.00;;
71298;SDS011;59083;47.974;21.722;2022-08-19T02:37:27;16.10;;;10.83;;
71298;SDS011;59083;47.974;21.722;2022-08-19T02:40:48;15.93;;;10.93;;
71298;SDS011;59083;47.974;21.722;2022-08-19T02:44:00;17.20;;;11.35;;
71298;SDS011;59083;47.974;21.722;2022-08-19T02:47:05;16.80;;;11.30;;
71298;SDS011;59083;47.974;21.722;2022-08-19T02:50:06;19.33;;;11.30;;
71298;SDS011;59083;47.974;21.722;2022-08-19T02:53:08;17.93;;;11.70;;
71298;SDS011;59083;47.974;21.722;2022-08-19T02:56:09;19.45;;;11.80;;
71298;SDS011;59083;47.974;21.722;2022-08-19T02:59:10;18.10;;;12.30;;
71298;SDS011;59083;47.974;21.722;2022-08-19T03:02:12;18.67;;;11.73;;
71298;SDS011;59083;47.974;21.722;2022-08-19T03:05:13;17.42;;;11.65;;
71298;SDS011;59083;47.974;21.722;2022-08-19T03:08:15;18.13;;;12.30;;
71298;SDS011;59083;47.974;21.722;2022-08-19T03:11:17;21.10;;;12.43;;
71298;SDS011;59083;47.974;21.722;2022-08-19T03:14:24;17.62;;;11.82;;
71298;SDS011;59083;47.974;21.722;2022-08-19T03:17:25;19.48;;;11.80;;
71298;SDS011;59083;47.974;21.722;2022-08-19T03:20:27;19.42;;;11.77;;
71298;SDS011;59083;47.974;21.722;2022-08-19T03:23:28;24.23;;;12.00;;
71298;SDS011;59083;47.974;21.722;2022-08-19T03:26:29;18.98;;;11.95;;
71298;SDS011;59083;47.974;21.722;2022-08-19T03:29:31;18.65;;;11.90;;
71298;SDS011;59083;47.974;21.722;2022-08-19T03:32:33;18.45;;;11.60;;
71298;SDS011;59083;47.974;21.722;2022-08-19T03:35:34;19.80;;;12.32;;
71298;SDS011;59083;47.974;21.722;2022-08-19T03:38:49;22.77;;;12.20;;
71298;SDS011;59083;47.974;21.722;2022-08-19T03:41:53;18.40;;;12.32;;
71298;SDS011;59083;47.974;21.722;2022-08-19T03:44:57;18.70;;;11.50;;
71298;SDS011;59083;47.974;21.722;2022-08-19T03:47:59;18.73;;;11.73;;
71298;SDS011;59083;47.974;21.722;2022-08-19T03:51:00;18.98;;;12.05;;
71298;SDS011;59083;47.974;21.722;2022-08-19T03:54:04;19.10;;;11.67;;
71298;SDS011;59083;47.974;21.722;2022-08-19T03:57:10;20.98;;;13.15;;
71298;SDS011;59083;47.974;21.722;2022-08-19T04:00:12;23.25;;;13.40;;
71298;SDS011;59083;47.974;21.722;2022-08-19T04:03:14;19.60;;;12.30;;
71298;SDS011;59083;47.974;21.722;2022-08-19T04:06:18;19.37;;;11.88;;
71298;SDS011;59083;47.974;21.722;2022-08-19T04:09:23;18.83;;;12.47;;
71298;SDS011;59083;47.974;21.722;2022-08-19T04:12:24;20.25;;;12.10;;
71298;SDS011;59083;47.974;21.722;2022-08-19T04:15:26;21.37;;;13.00;;
71298;SDS011;59083;47.974;21.722;2022-08-19T04:18:29;18.20;;;11.77;;
71298;SDS011;59083;47.974;21.722;2022-08-19T04:21:31;19.15;;;12.63;;
71298;SDS011;59083;47.974;21.722;2022-08-19T04:24:33;19.63;;;12.30;;
71298;SDS011;59083;47.974;21.722;2022-08-19T04:27:35;19.70;;;11.98;;
71298;SDS011;59083;47.974;21.722;2022-08-19T04:30:38;21.58;;;13.60;;
71298;SDS011;59083;47.974;21.722;2022-08-19T04:33:40;17.23;;;12.07;;
71298;SDS011;59083;47.974;21.722;2022-08-19T04:36:42;22.10;;;11.90;;
71298;SDS011;59083;47.974;21.722;2022-08-19T04:39:45;17.33;;;11.40;;
71298;SDS011;59083;47.974;21.722;2022-08-19T04:43:05;18.83;;;11.60;;
71298;SDS011;59083;47.974;21.722;2022-08-19T04:46:11;41.67;;;16.17;;
71298;SDS011;59083;47.974;21.722;2022-08-19T04:49:13;24.73;;;15.32;;
71298;SDS011;59083;47.974;21.722;2022-08-19T04:52:17;18.77;;;12.07;;
71298;SDS011;59083;47.974;21.722;2022-08-19T04:55:18;19.10;;;12.33;;
71298;SDS011;59083;47.974;21.722;2022-08-19T04:58:20;20.20;;;12.73;;
71298;SDS011;59083;47.974;21.722;2022-08-19T05:01:25;17.23;;;12.02;;
71298;SDS011;59083;47.974;21.722;2022-08-19T05:04:29;17.08;;;11.50;;
71298;SDS011;59083;47.974;21.722;2022-08-19T05:07:32;15.90;;;11.45;;
71298;SDS011;59083;47.974;21.722;2022-08-19T05:10:39;17.77;;;11.43;;
71298;SDS011;59083;47.974;21.722;2022-08-19T05:13:41;16.25;;;11.82;;
71298;SDS011;59083;47.974;21.722;2022-08-19T05:16:44;19.10;;;11.50;;
71298;SDS011;59083;47.974;21.722;2022-08-19T05:19:45;18.33;;;12.05;;
71298;SDS011;59083;47.974;21.722;2022-08-19T05:23:05;18.42;;;11.85;;
71298;SDS011;59083;47.974;21.722;2022-08-19T05:26:06;21.93;;;11.90;;
71298;SDS011;59083;47.974;21.722;2022-08-19T05:29:10;20.08;;;11.32;;
71298;SDS011;59083;47.974;21.722;2022-08-19T05:32:11;16.42;;;11.02;;
71298;SDS011;59083;47.974;21.722;2022-08-19T05:35:13;19.08;;;11.15;;
71298;SDS011;59083;47.974;21.722;2022-08-19T05:38:14;14.65;;;10.85;;
71298;SDS011;59083;47.974;21.722;2022-08-19T05:41:17;16.10;;;10.63;;
71298;SDS011;59083;47.974;21.722;2022-08-19T05:44:18;15.38;;;10.65;;
71298;SDS011;59083;47.974;21.722;2022-08-19T05:47:22;16.75;;;11.05;;
71298;SDS011;59083;47.974;21.722;2022-08-19T05:50:24;14.70;;;10.05;;
71298;SDS011;59083;47.974;21.722;2022-08-19T05:53:29;16.20;;;10.45;;
71298;SDS011;59083;47.974;21.722;2022-08-19T05:56:30;15.60;;;9.43;;
71298;SDS011;59083;47.974;21.722;2022-08-19T05:59:32;14.73;;;10.15;;
71298;SDS011;59083;47.974;21.722;2022-08-19T06:02:35;15.65;;;10.02;;
71298;SDS011;59083;47.974;21.722;2022-08-19T06:05:36;17.50;;;9.88;;
71298;SDS011;59083;47.974;21.722;2022-08-19T06:08:38;14.50;;;10.20;;
71298;SDS011;59083;47.974;21.722;2022-08-19T06:11:41;14.07;;;9.90;;
71298;SDS011;59083;47.974;21.722;2022-08-19T06:14:47;14.75;;;9.68;;
71298;SDS011;59083;47.974;21.722;2022-08-19T06:17:51;15.25;;;10.63;;
71298;SDS011;59083;47.974;21.722;2022-08-19T06:20:52;16.95;;;9.68;;
71298;SDS011;59083;47.974;21.722;2022-08-19T06:23:54;17.10;;;9.60;;
71298;SDS011;59083;47.974;21.722;2022-08-19T06:26:57;15.33;;;9.80;;
71298;SDS011;59083;47.974;21.722;2022-08-19T06:30:00;15.35;;;9.57;;
71298;SDS011;59083;47.974;21.722;2022-08-19T06:33:01;13.82;;;9.18;;
71298;SDS011;59083;47.974;21.722;2022-08-19T06:36:03;16.42;;;9.45;;
71298;SDS011;59083;47.974;21.722;2022-08-19T06:39:06;15.02;;;9.50;;
71298;SDS011;59083;47.974;21.722;2022-08-19T06:42:11;13.40;;;9.57;;
71298;SDS011;59083;47.974;21.722;2022-08-19T06:45:13;13.65;;;9.75;;
71298;SDS011;59083;47.974;21.722;2022-08-19T06:48:15;18.55;;;9.68;;
71298;SDS011;59083;47.974;21.722;2022-08-19T06:51:17;14.55;;;8.85;;
71298;SDS011;59083;47.974;21.722;2022-08-19T06:54:19;15.90;;;8.65;;
71298;SDS011;59083;47.974;21.722;2022-08-19T06:57:20;16.77;;;8.50;;
71298;SDS011;59083;47.974;21.722;2022-08-19T07:00:22;17.10;;;8.30;;
71298;SDS011;59083;47.974;21.722;2022-08-19T07:03:23;14.80;;;8.07;;
71298;SDS011;59083;47.974;21.722;2022-08-19T07:06:25;15.30;;;7.82;;
71298;SDS011;59083;47.974;21.722;2022-08-19T07:09:26;14.13;;;8.07;;
71298;SDS011;59083;47.974;21.722;2022-08-19T07:12:28;12.57;;;7.83;;
71298;SDS011;59083;47.974;21.722;2022-08-19T07:15:33;16.58;;;7.75;;
71298;SDS011;59083;47.974;21.722;2022-08-19T07:18:37;11.63;;;7.93;;
71298;SDS011;59083;47.974;21.722;2022-08-19T07:21:40;12.73;;;7.80;;
71298;SDS011;59083;47.974;21.722;2022-08-19T07:24:42;14.63;;;8.20;;
71298;SDS011;59083;47.974;21.722;2022-08-19T07:27:43;11.23;;;8.23;;
71298;SDS011;59083;47.974;21.722;2022-08-19T07:30:45;16.08;;;8.20;;
71298;SDS011;59083;47.974;21.722;2022-08-19T07:33:47;13.98;;;7.68;;
71298;SDS011;59083;47.974;21.722;2022-08-19T07:36:49;12.98;;;7.85;;
71298;SDS011;59083;47.974;21.722;2022-08-19T07:39:51;13.62;;;8.07;;
71298;SDS011;59083;47.974;21.722;2022-08-19T07:42:52;13.90;;;8.07;;
71298;SDS011;59083;47.974;21.722;2022-08-19T07:45:54;11.38;;;7.47;;
71298;SDS011;59083;47.974;21.722;2022-08-19T07:48:57;10.93;;;7.30;;
71298;SDS011;59083;47.974;21.722;2022-08-19T07:52:02;17.77;;;7.85;;
71298;SDS011;59083;47.974;21.722;2022-08-19T07:55:08;18.25;;;10.27;;
71298;SDS011;59083;47.974;21.722;2022-08-19T07:58:12;14.03;;;8.00;;
71298;SDS011;59083;47.974;21.722;2022-08-19T08:01:17;16.55;;;8.68;;
71298;SDS011;59083;47.974;21.722;2022-08-19T08:04:21;16.87;;;8.20;;
71298;SDS011;59083;47.974;21.722;2022-08-19T08:07:41;14.32;;;8.15;;
71298;SDS011;59083;47.974;21.722;2022-08-19T08:11:00;13.70;;;8.00;;
71298;SDS011;59083;47.974;21.722;2022-08-19T08:14:02;15.33;;;7.20;;
71298;SDS011;59083;47.974;21.722;2022-08-19T08:17:04;11.68;;;7.60;;
71298;SDS011;59083;47.974;21.722;2022-08-19T08:20:06;9.98;;;7.40;;
71298;SDS011;59083;47.974;21.722;2022-08-19T08:23:08;12.57;;;7.57;;
71298;SDS011;59083;47.974;21.722;2022-08-19T08:26:29;12.75;;;7.68;;
71298;SDS011;59083;47.974;21.722;2022-08-19T08:29:30;16.33;;;7.90;;
71298;SDS011;59083;47.974;21.722;2022-08-19T08:32:31;16.42;;;7.97;;
71298;SDS011;59083;47.974;21.722;2022-08-19T08:35:33;12.35;;;7.90;;
71298;SDS011;59083;47.974;21.722;2022-08-19T08:38:35;15.30;;;7.40;;
71298;SDS011;59083;47.974;21.722;2022-08-19T08:41:44;12.18;;;7.47;;
71298;SDS011;59083;47.974;21.722;2022-08-19T08:44:54;11.47;;;6.97;;
71298;SDS011;59083;47.974;21.722;2022-08-19T08:47:58;11.90;;;6.90;;
71298;SDS011;59083;47.974;21.722;2022-08-19T08:51:10;13.98;;;7.70;;
71298;SDS011;59083;47.974;21.722;2022-08-19T08:54:17;12.32;;;7.28;;
71298;SDS011;59083;47.974;21.722;2022-08-19T08:57:45;14.93;;;8.13;;
71298;SDS011;59083;47.974;21.722;2022-08-19T09:00:49;12.60;;;7.43;;
71298;SDS011;59083;47.974;21.722;2022-08-19T09:03:50;12.63;;;7.80;;
71298;SDS011;59083;47.974;21.722;2022-08-19T09:07:02;16.42;;;9.57;;
71298;SDS011;59083;47.974;21.722;2022-08-19T09:16:49;14.20;;;8.00;;
71298;SDS011;59083;47.974;21.722;2022-08-19T09:22:58;13.43;;;8.15;;
71298;SDS011;59083;47.974;21.722;2022-08-19T09:25:59;10.88;;;7.30;;
71298;SDS011;59083;47.974;21.722;2022-08-19T09:29:00;20.60;;;13.07;;
71298;SDS011;59083;47.974;21.722;2022-08-19T09:32:05;11.53;;;7.50;;
71298;SDS011;59083;47.974;21.722;2022-08-19T09:35:07;15.65;;;7.40;;
71298;SDS011;59083;47.974;21.722;2022-08-19T09:38:08;11.02;;;7.90;;
71298;SDS011;59083;47.974;21.722;2022-08-19T09:41:11;11.05;;;7.12;;
71298;SDS011;59083;47.974;21.722;2022-08-19T09:44:14;14.63;;;7.12;;
71298;SDS011;59083;47.974;21.722;2022-08-19T09:47:16;10.43;;;6.83;;
71298;SDS011;59083;47.974;21.722;2022-08-19T09:50:18;10.48;;;6.35;;
71298;SDS011;59083;47.974;21.722;2022-08-19T09:53:19;11.07;;;6.20;;
71298;SDS011;59083;47.974;21.722;2022-08-19T09:56:24;10.40;;;6.55;;
71298;SDS011;59083;47.974;21.722;2022-08-19T09:59:25;11.32;;;6.35;;
71298;SDS011;59083;47.974;21.722;2022-08-19T10:02:26;13.37;;;6.30;;
71298;SDS011;59083;47.974;21.722;2022-08-19T10:05:28;11.30;;;6.47;;
71298;SDS011;59083;47.974;21.722;2022-08-19T10:08:48;9.23;;;6.20;;
71298;SDS011;59083;47.974;21.722;2022-08-19T10:11:50;11.77;;;5.87;;
71298;SDS011;59083;47.974;21.722;2022-08-19T10:14:51;9.77;;;6.18;;
71298;SDS011;59083;47.974;21.722;2022-08-19T10:17:54;8.40;;;5.83;;
71298;SDS011;59083;47.974;21.722;2022-08-19T10:21:02;11.63;;;5.82;;
71298;SDS011;59083;47.974;21.722;2022-08-19T10:24:09;8.98;;;5.87;;
71298;SDS011;59083;47.974;21.722;2022-08-19T10:27:10;8.88;;;5.10;;
71298;SDS011;59083;47.974;21.722;2022-08-19T10:30:13;9.57;;;5.75;;
71298;SDS011;59083;47.974;21.722;2022-08-19T10:33:14;8.53;;;5.33;;
71298;SDS011;59083;47.974;21.722;2022-08-19T10:36:17;9.75;;;5.80;;
71298;SDS011;59083;47.974;21.722;2022-08-19T10:39:20;11.12;;;5.70;;
71298;SDS011;59083;47.974;21.722;2022-08-19T10:42:21;9.07;;;5.37;;
71298;SDS011;59083;47.974;21.722;2022-08-19T10:45:23;9.10;;;6.03;;
71298;SDS011;59083;47.974;21.722;2022-08-19T10:48:27;11.50;;;5.47;;
71298;SDS011;59083;47.974;21.722;2022-08-19T10:51:28;8.35;;;5.10;;
71298;SDS011;59083;47.974;21.722;2022-08-19T10:54:48;9.35;;;5.28;;
71298;SDS011;59083;47.974;21.722;2022-08-19T10:58:18;10.20;;;5.78;;
71298;SDS011;59083;47.974;21.722;2022-08-19T11:01:23;9.85;;;5.75;;
71298;SDS011;59083;47.974;21.722;2022-08-19T11:04:26;9.43;;;6.00;;
71298;SDS011;59083;47.974;21.722;2022-08-19T11:07:27;16.17;;;6.30;;
71298;SDS011;59083;47.974;21.722;2022-08-19T11:10:28;9.40;;;6.10;;
71298;SDS011;59083;47.974;21.722;2022-08-19T11:13:30;8.70;;;5.72;;
71298;SDS011;59083;47.974;21.722;2022-08-19T11:16:34;9.18;;;5.35;;
71298;SDS011;59083;47.974;21.722;2022-08-19T11:19:37;9.97;;;5.37;;
71298;SDS011;59083;47.974;21.722;2022-08-19T11:22:38;10.23;;;5.95;;
71298;SDS011;59083;47.974;21.722;2022-08-19T11:25:41;9.50;;;5.93;;
71298;SDS011;59083;47.974;21.722;2022-08-19T11:28:42;13.93;;;6.35;;
71298;SDS011;59083;47.974;21.722;2022-08-19T11:31:45;11.68;;;6.10;;
71298;SDS011;59083;47.974;21.722;2022-08-19T11:34:48;19.37;;;6.27;;
71298;SDS011;59083;47.974;21.722;2022-08-19T11:37:49;11.88;;;6.20;;
71298;SDS011;59083;47.974;21.722;2022-08-19T11:40:54;11.43;;;6.30;;
71298;SDS011;59083;47.974;21.722;2022-08-19T11:43:57;8.75;;;6.30;;
71298;SDS011;59083;47.974;21.722;2022-08-19T11:46:58;9.95;;;6.37;;
71298;SDS011;59083;47.974;21.722;2022-08-19T11:50:01;10.33;;;6.70;;
71298;SDS011;59083;47.974;21.722;2022-08-19T11:53:02;10.68;;;6.55;;
71298;SDS011;59083;47.974;21.722;2022-08-19T11:56:04;14.73;;;6.80;;
71298;SDS011;59083;47.974;21.722;2022-08-19T11:59:07;10.32;;;6.35;;
71298;SDS011;59083;47.974;21.722;2022-08-19T12:02:08;10.65;;;6.50;;
71298;SDS011;59083;47.974;21.722;2022-08-19T12:05:11;10.53;;;6.37;;
71298;SDS011;59083;47.974;21.722;2022-08-19T12:08:12;19.95;;;6.95;;
71298;SDS011;59083;47.974;21.722;2022-08-19T12:11:14;10.88;;;6.43;;
71298;SDS011;59083;47.974;21.722;2022-08-19T12:14:16;9.98;;;6.22;;
71298;SDS011;59083;47.974;21.722;2022-08-19T12:17:18;10.45;;;5.97;;
71298;SDS011;59083;47.974;21.722;2022-08-19T12:20:19;10.50;;;6.40;;
71298;SDS011;59083;47.974;21.722;2022-08-19T12:23:20;12.45;;;6.20;;
71298;SDS011;59083;47.974;21.722;2022-08-19T12:26:22;9.70;;;6.30;;
71298;SDS011;59083;47.974;21.722;2022-08-19T12:29:25;10.32;;;6.20;;
71298;SDS011;59083;47.974;21.722;2022-08-19T12:32:29;10.88;;;6.85;;
71298;SDS011;59083;47.974;21.722;2022-08-19T12:35:31;11.57;;;6.20;;
71298;SDS011;59083;47.974;21.722;2022-08-19T12:38:32;11.02;;;6.80;;
71298;SDS011;59083;47.974;21.722;2022-08-19T12:41:35;12.02;;;6.30;;
71298;SDS011;59083;47.974;21.722;2022-08-19T12:44:38;10.07;;;5.90;;
71298;SDS011;59083;47.974;21.722;2022-08-19T12:47:40;10.18;;;6.35;;
71298;SDS011;59083;47.974;21.722;2022-08-19T12:50:42;11.20;;;7.20;;
71298;SDS011;59083;47.974;21.722;2022-08-19T12:53:46;10.77;;;6.20;;
71298;SDS011;59083;47.974;21.722;2022-08-19T12:56:48;11.00;;;5.87;;
71298;SDS011;59083;47.974;21.722;2022-08-19T12:59:51;10.60;;;6.43;;
71298;SDS011;59083;47.974;21.722;2022-08-19T13:02:54;11.12;;;6.78;;
71298;SDS011;59083;47.974;21.722;2022-08-19T13:05:56;10.23;;;6.00;;
71298;SDS011;59083;47.974;21.722;2022-08-19T13:08:57;8.55;;;5.85;;
71298;SDS011;59083;47.974;21.722;2022-08-19T13:11:58;11.35;;;6.07;;
71298;SDS011;59083;47.974;21.722;2022-08-19T13:15:01;8.52;;;5.37;;
71298;SDS011;59083;47.974;21.722;2022-08-19T13:18:03;12.25;;;5.60;;
71298;SDS011;59083;47.974;21.722;2022-08-19T13:21:04;10.73;;;6.30;;
71298;SDS011;59083;47.974;21.722;2022-08-19T13:24:07;8.60;;;5.78;;
71298;SDS011;59083;47.974;21.722;2022-08-19T13:27:08;11.38;;;5.97;;
71298;SDS011;59083;47.974;21.722;2022-08-19T13:30:10;11.48;;;5.55;;
71298;SDS011;59083;47.974;21.722;2022-08-19T13:33:31;9.32;;;5.32;;
71298;SDS011;59083;47.974;21.722;2022-08-19T13:36:34;11.10;;;5.90;;
71298;SDS011;59083;47.974;21.722;2022-08-19T13:39:36;11.05;;;6.05;;
71298;SDS011;59083;47.974;21.722;2022-08-19T13:42:38;10.80;;;5.68;;
71298;SDS011;59083;47.974;21.722;2022-08-19T13:45:40;12.95;;;5.70;;
71298;SDS011;59083;47.974;21.722;2022-08-19T13:48:42;9.32;;;5.87;;
71298;SDS011;59083;47.974;21.722;2022-08-19T13:51:44;13.17;;;5.90;;
71298;SDS011;59083;47.974;21.722;2022-08-19T13:54:46;9.10;;;5.93;;
71298;SDS011;59083;47.974;21.722;2022-08-19T13:57:53;9.20;;;5.30;;
71298;SDS011;59083;47.974;21.722;2022-08-19T14:00:57;9.13;;;5.80;;
71298;SDS011;59083;47.974;21.722;2022-08-19T14:04:00;10.18;;;6.00;;
71298;SDS011;59083;47.974;21.722;2022-08-19T14:07:01;8.83;;;5.40;;
71298;SDS011;59083;47.974;21.722;2022-08-19T14:10:04;9.52;;;5.25;;
71298;SDS011;59083;47.974;21.722;2022-08-19T14:13:06;9.02;;;6.00;;
71298;SDS011;59083;47.974;21.722;2022-08-19T14:16:09;9.90;;;6.30;;
71298;SDS011;59083;47.974;21.722;2022-08-19T14:19:12;9.68;;;5.95;;
71298;SDS011;59083;47.974;21.722;2022-08-19T14:22:13;11.30;;;6.50;;
71298;SDS011;59083;47.974;21.722;2022-08-19T14:25:16;8.70;;;5.70;;
71298;SDS011;59083;47.974;21.722;2022-08-19T14:28:21;8.57;;;5.95;;
71298;SDS011;59083;47.974;21.722;2022-08-19T14:31:22;15.30;;;5.57;;
71298;SDS011;59083;47.974;21.722;2022-08-19T14:34:25;8.88;;;5.43;;
71298;SDS011;59083;47.974;21.722;2022-08-19T14:37:27;7.83;;;5.30;;
71298;SDS011;59083;47.974;21.722;2022-08-19T14:40:29;12.40;;;5.68;;
71298;SDS011;59083;47.974;21.722;2022-08-19T14:43:30;10.13;;;6.10;;
71298;SDS011;59083;47.974;21.722;2022-08-19T14:46:32;8.32;;;5.65;;
71298;SDS011;59083;47.974;21.722;2022-08-19T14:49:33;9.50;;;5.60;;
71298;SDS011;59083;47.974;21.722;2022-08-19T14:52:35;9.53;;;5.70;;
71298;SDS011;59083;47.974;21.722;2022-08-19T14:55:39;9.25;;;5.60;;
71298;SDS011;59083;47.974;21.722;2022-08-19T14:58:42;9.05;;;5.30;;
71298;SDS011;59083;47.974;21.722;2022-08-19T15:01:45;8.43;;;6.07;;
71298;SDS011;59083;47.974;21.722;2022-08-19T15:04:46;9.85;;;5.53;;
71298;SDS011;59083;47.974;21.722;2022-08-19T15:07:47;10.20;;;5.10;;
71298;SDS011;59083;47.974;21.722;2022-08-19T15:10:48;9.02;;;5.20;;
71298;SDS011;59083;47.974;21.722;2022-08-19T15:13:50;8.30;;;5.53;;
71298;SDS011;59083;47.974;21.722;2022-08-19T15:16:52;8.70;;;5.47;;
71298;SDS011;59083;47.974;21.722;2022-08-19T15:19:54;11.12;;;5.25;;
71298;SDS011;59083;47.974;21.722;2022-08-19T15:22:55;9.80;;;5.40;;
71298;SDS011;59083;47.974;21.722;2022-08-19T15:25:57;9.07;;;5.37;;
71298;SDS011;59083;47.974;21.722;2022-08-19T15:28:59;9.50;;;5.15;;
71298;SDS011;59083;47.974;21.722;2022-08-19T15:32:01;13.07;;;5.20;;
71298;SDS011;59083;47.974;21.722;2022-08-19T15:35:03;8.13;;;5.20;;
71298;SDS011;59083;47.974;21.722;2022-08-19T15:38:06;13.60;;;5.30;;
71298;SDS011;59083;47.974;21.722;2022-08-19T15:41:22;10.93;;;5.37;;
71298;SDS011;59083;47.974;21.722;2022-08-19T15:44:25;9.10;;;5.65;;
71298;SDS011;59083;47.974;21.722;2022-08-19T15:47:30;8.48;;;5.28;;
71298;SDS011;59083;47.974;21.722;2022-08-19T15:50:32;11.23;;;5.62;;
71298;SDS011;59083;47.974;21.722;2022-08-19T15:53:34;9.77;;;5.10;;
71298;SDS011;59083;47.974;21.722;2022-08-19T15:56:35;10.38;;;5.20;;
71298;SDS011;59083;47.974;21.722;2022-08-19T15:59:56;8.65;;;5.22;;
71298;SDS011;59083;47.974;21.722;2022-08-19T16:03:16;12.10;;;5.60;;
71298;SDS011;59083;47.974;21.722;2022-08-19T16:06:35;9.40;;;5.57;;
71298;SDS011;59083;47.974;21.722;2022-08-19T16:09:39;17.00;;;11.70;;
71298;SDS011;59083;47.974;21.722;2022-08-19T16:12:40;12.68;;;6.05;;
71298;SDS011;59083;47.974;21.722;2022-08-19T16:15:41;9.45;;;5.35;;
71298;SDS011;59083;47.974;21.722;2022-08-19T16:18:44;9.10;;;5.78;;
71298;SDS011;59083;47.974;21.722;2022-08-19T16:21:48;8.68;;;5.62;;
71298;SDS011;59083;47.974;21.722;2022-08-19T16:24:52;11.27;;;5.63;;
71298;SDS011;59083;47.974;21.722;2022-08-19T16:27:53;8.13;;;5.12;;
71298;SDS011;59083;47.974;21.722;2022-08-19T16:30:56;11.23;;;5.70;;
71298;SDS011;59083;47.974;21.722;2022-08-19T16:33:57;8.68;;;5.62;;
71298;SDS011;59083;47.974;21.722;2022-08-19T16:36:58;8.52;;;5.32;;
71298;SDS011;59083;47.974;21.722;2022-08-19T16:40:00;9.53;;;5.20;;
71298;SDS011;59083;47.974;21.722;2022-08-19T16:43:01;10.27;;;5.00;;
71298;SDS011;59083;47.974;21.722;2022-08-19T16:46:02;10.35;;;5.37;;
71298;SDS011;59083;47.974;21.722;2022-08-19T16:49:04;9.90;;;5.45;;
71298;SDS011;59083;47.974;21.722;2022-08-19T16:52:05;9.82;;;5.20;;
71298;SDS011;59083;47.974;21.722;2022-08-19T16:55:09;9.10;;;5.50;;
71298;SDS011;59083;47.974;21.722;2022-08-19T16:58:11;9.77;;;5.90;;
71298;SDS011;59083;47.974;21.722;2022-08-19T17:01:12;9.15;;;5.55;;
71298;SDS011;59083;47.974;21.722;2022-08-19T17:04:14;10.27;;;5.47;;
71298;SDS011;59083;47.974;21.722;2022-08-19T17:07:15;10.18;;;5.10;;
71298;SDS011;59083;47.974;21.722;2022-08-19T17:10:16;11.37;;;5.13;;
71298;SDS011;59083;47.974;21.722;2022-08-19T17:13:17;11.95;;;6.00;;
71298;SDS011;59083;47.974;21.722;2022-08-19T17:16:20;12.88;;;5.62;;
71298;SDS011;59083;47.974;21.722;2022-08-19T17:19:25;13.35;;;5.07;;
71298;SDS011;59083;47.974;21.722;2022-08-19T17:22:28;12.27;;;5.65;;
71298;SDS011;59083;47.974;21.722;2022-08-19T17:25:30;9.20;;;5.47;;
71298;SDS011;59083;47.974;21.722;2022-08-19T17:28:33;13.55;;;5.93;;
71298;SDS011;59083;47.974;21.722;2022-08-19T17:31:35;11.85;;;6.00;;
71298;SDS011;59083;47.974;21.722;2022-08-19T17:34:36;9.73;;;6.07;;
71298;SDS011;59083;47.974;21.722;2022-08-19T17:37:38;9.48;;;6.68;;
71298;SDS011;59083;47.974;21.722;2022-08-19T17:40:40;11.23;;;6.33;;
71298;SDS011;59083;47.974;21.722;2022-08-19T17:43:43;15.63;;;7.47;;
71298;SDS011;59083;47.974;21.722;2022-08-19T17:46:45;13.00;;;7.72;;
71298;SDS011;59083;47.974;21.722;2022-08-19T17:49:47;15.98;;;9.00;;
71298;SDS011;59083;47.974;21.722;2022-08-19T17:52:49;16.70;;;8.90;;
71298;SDS011;59083;47.974;21.722;2022-08-19T17:55:52;15.30;;;7.10;;
71298;SDS011;59083;47.974;21.722;2022-08-19T17:58:53;18.40;;;6.60;;
71298;SDS011;59083;47.974;21.722;2022-08-19T18:01:54;15.90;;;7.00;;